San Lucas, California
Current Conditions -  °F | °C
As of 7:53 PM on Wednesday 22 Oct 2014 (Local Time) from KPRB Reporting Station
Clear Clear  
Wind Chill: 68°   Ceiling: Unl
Heat Index: 68°   Visibility: 10mi
Dew Point: 35°   Wind: 10mph
Humidity: 30%   Direction: 80°E
Pressure: 30.01"   Gusts: NA
Location:  36.13°N, 121.02°W
Report Text: KPRB 230253Z AUTO 08009KT 10SM CLR 20/02 A3001 RMK AO2 SLP160 T02000017 53013 TSNO
Loading
Personal Weather Stations






























Interactive Weather Map
Tropical Storm Tracking
New forecast layout! Learn more

10-Day Weather Forecast

Advertisements
Track Severe Weather on mobile